Home > Products > Valid Products > MTR

000
SAUS43 KABR 051157
MTR8D3
METAR K8D3 051156Z AUTO 24005KT M23/M27 A3041 RMK AO1 SLP356
T12331267 11206 21239 55002





000
SAUS43 KABR 051058
MTR8D3
METAR K8D3 051056Z AUTO 23005KT M23/M27 A3039 RMK AO1 SLP348
T12281267





000
SAUS43 KABR 051058
MTR8D3
METAR K8D3 051056Z AUTO 23005KT M23/M27 A3039 RMK AO1 SLP348
T12281267





000
SAUS43 KABR 050858
MTR8D3
METAR K8D3 050856Z AUTO 28004KT M22/M26 A3042 RMK AO1 SLP355
T12221256 58004





000
SAUS43 KABR 050758
MTR8D3
METAR K8D3 050756Z AUTO 28005KT M22/M26 A3043 RMK AO1 SLP360
T12171256





000
SAUS43 KABR 050658
MTR8D3
METAR K8D3 050656Z AUTO 30005KT M22/M26 A3044 RMK AO1 SLP362
T12221256





000
SAUS43 KABR 050658
MTR8D3
METAR K8D3 050656Z AUTO 30005KT M22/M26 A3044 RMK AO1 SLP362
T12221256





000
SAUS43 KABR 050558
MTR8D3
METAR K8D3 050556Z AUTO 29006KT M21/M25 A3043 RMK AO1 SLP359
T12111250 11172 21211 411561211 51011





000
SAUS43 KABR 050558
MTR8D3
METAR K8D3 050556Z AUTO 29006KT M21/M25 A3043 RMK AO1 SLP359
T12111250 11172 21211 411561211 51011





000
SAUS43 KABR 050402
MTR8D3
METAR K8D3 050356Z AUTO 32008KT M21/M24 A3041 RMK AO1 SLP353
T12061244





000
SAUS43 KABR 050258
MTR8D3
METAR K8D3 050256Z AUTO 30005KT M21/M25 A3040 RMK AO1 SLP347
T12061250 51012





000
SAUS43 KABR 050258
MTR8D3
METAR K8D3 050256Z AUTO 30005KT M21/M25 A3040 RMK AO1 SLP347
T12061250 51012





000
SAUS43 KABR 050158
MTR8D3
METAR K8D3 050156Z AUTO 32009KT M19/M24 A3038 RMK AO1 SLP342
T11891239





000
SAUS43 KABR 050158
MTR8D3
METAR K8D3 050156Z AUTO 32009KT M19/M24 A3038 RMK AO1 SLP342
T11891239





000
SAUS43 KABR 042257
MTR8D3
METAR K8D3 042256Z AUTO 34019KT M16/M22 A3034 RMK AO1 SLP327
T11611217





000
SAUS43 KABR 042001
MTR8D3
METAR K8D3 041956Z AUTO 33017KT M17/M21 A3032 RMK AO1 SLP317
T11671211





000
SAUS43 KABR 042001
MTR8D3
METAR K8D3 041956Z AUTO 33017KT M17/M21 A3032 RMK AO1 SLP317
T11671211





000
SAUS43 KABR 041759
MTR8D3
METAR K8D3 041756Z AUTO 33019KT M16/M22 A3030 RMK AO1 PK WND
34028/1707 SLP308 T11611222 11161 21178 51024





000
SAUS43 KABR 041658
MTR8D3
METAR K8D3 041656Z AUTO 34020KT M16/M22 A3027 RMK AO1 PK WND
34027/1644 SLP300 T11611217





000
SAUS43 KABR 041658
MTR8D3
METAR K8D3 041656Z AUTO 34020KT M16/M22 A3027 RMK AO1 PK WND
34027/1644 SLP300 T11611217





000
SAUS43 KABR 041400
MTR8D3
METAR K8D3 041356Z AUTO 34011KT M17/M21 A3019 RMK AO1 SLP272
T11721206





000
SAUS43 KABR 041157
MTR8D3
METAR K8D3 041156Z AUTO 30012KT M17/M21 A3014 RMK AO1 SLP253 70005
T11721211 11167 21194 53017





000
SAUS43 KABR 041157
MTR8D3
METAR K8D3 041156Z AUTO 30012KT M17/M21 A3014 RMK AO1 SLP253 70005
T11721211 11167 21194 53017





000
SAUS43 KABR 040958
MTR8D3
METAR K8D3 040956Z AUTO 30008KT M19/M23 A3010 RMK AO1 SLP238
T11891233





000
SAUS43 KABR 040857
MTR8D3
METAR K8D3 040856Z AUTO 29009KT M19/M23 A3009 RMK AO1 SLP236
T11891233 50004





000
SAUS43 KABR 040758
MTR8D3
METAR K8D3 040756Z AUTO 30009KT M18/M23 A3010 RMK AO1 SLP239
T11781228





000
SAUS43 KABR 040758
MTR8D3
METAR K8D3 040756Z AUTO 30009KT M18/M23 A3010 RMK AO1 SLP239
T11781228





000
SAUS43 KABR 040557
MTR8D3
METAR K8D3 040556Z AUTO 33014KT M17/M22 A3008 RMK AO1 SLP230 60001
T11671217 11122 21167 410171167 53006





000
SAUS43 KABR 040557
MTR8D3
METAR K8D3 040556Z AUTO 33014KT M17/M22 A3008 RMK AO1 SLP230 60001
T11671217 11122 21167 410171167 53006





000
SAUS43 KABR 040458
MTR8D3
METAR K8D3 040456Z AUTO 32012KT M16/M21 A3007 RMK AO1 SLP225
T11611211





000
SAUS43 KABR 040357
MTR8D3
METAR K8D3 040356Z AUTO 33014KT M16/M21 A3006 RMK AO1 SLP221
T11611211





000
SAUS43 KABR 040257
MTR8D3
METAR K8D3 040256Z AUTO 32008KT M16/M21 A3006 RMK AO1 SLP221 P0001
60001 T11611206 51029





000
SAUS43 KABR 040257
MTR8D3
METAR K8D3 040256Z AUTO 32008KT M16/M21 A3006 RMK AO1 SLP221 P0001
60001 T11611206 51029





000
SAUS43 KABR 040158
MTR8D3
METAR K8D3 040156Z AUTO 33012KT M15/M20 A3004 RMK AO1 PK WND
34028/0109 SLP212 T11501200





000
SAUS43 KABR 040058
MTR8D3
METAR K8D3 040056Z AUTO 34022KT M13/M18 A3001 RMK AO1 PK WND
35026/0008 SLP199 T11331183





000
SAUS43 KABR 040058
MTR8D3
METAR K8D3 040056Z AUTO 34022KT M13/M18 A3001 RMK AO1 PK WND
35026/0008 SLP199 T11331183





000
SAUS43 KABR 040007 COR
MTR8D3
METAR K8D3 032356Z AUTO 34019KT M12/M18 A2997 RMK AO1 PK WND
32031/2258 SLP184 T11221178 11106 21122 53019





000
SAUS43 KABR 040002 COR
MTR8D3
METAR K8D3 032356Z AUTO 34019KT M12/M18 A2997 RMK AO1 PK WND
32031/2258 SLP184 T11221178 11106 21122 53019





000
SAUS43 KABR 040002 COR
MTR8D3
METAR K8D3 032356Z AUTO 34019KT M12/M18 A2997 RMK AO1 PK WND
32031/2258 SLP184 T11221178 11106 21122 53019





000
SAUS43 KABR 040000 COR
MTR8D3
METAR K8D3 032356Z AUTO 34019KT M12/M18 A2997 RMK AO1 PK WND
32031/2258 SLP184 T11221178 11106 21122 53019





000
SAUS43 KABR 040000 COR
MTR8D3
METAR K8D3 032356Z AUTO 34019KT M12/M18 A2997 RMK AO1 PK WND
32031/2258 SLP184 T11221178 11106 21122 53019





000
SAUS43 KABR 032358
MTR8D3
METAR K8D3 032356Z AUTO 34019KT M12/M18 A2997 RMK AO1 PK WND
32031/2258 SLP184 T11221178 11106 21122 53019





000
SAUS43 KABR 032358
MTR8D3
METAR K8D3 032356Z AUTO 34019KT M12/M18 A2997 RMK AO1 PK WND
32031/2258 SLP184 T11221178 11106 21122 53019





000
SAUS43 KABR 032158
MTR8D3
METAR K8D3 032156Z AUTO 34026G31KT M11/M17 A2993 RMK AO1 PK WND
33033/2145 SLP166 T11111167





000
SAUS43 KABR 031901
MTR8D3
METAR K8D3 031856Z AUTO 34024G34KT M11/M14 A2990 RMK AO1 PK WND
34036/1803 SLP156 T11061139





000
SAUS43 KABR 031702
MTR8D3
METAR K8D3 031656Z AUTO 35025G34KT M10/M14 A2987 RMK AO1 PK WND
34038/1601 SLP146 T11001139





000
SAUS43 KABR 031702
MTR8D3
METAR K8D3 031656Z AUTO 35025G34KT M10/M14 A2987 RMK AO1 PK WND
34038/1601 SLP146 T11001139





000
SAUS43 KABR 031602
MTR8D3
METAR K8D3 031556Z AUTO 34024G37KT M09/M12 A2985 RMK AO1 PK WND
34037/1548 SLP136 T10941122





000
SAUS43 KABR 031501
MTR8D3
METAR K8D3 031456Z AUTO 35023G32KT M09/M11 A2981 RMK AO1 PK WND
35034/1423 SLP122 60004 T10891106 53033





000
SAUS43 KABR 031402
MTR8D3
METAR K8D3 031356Z AUTO 34021G28KT M08/M09 A2977 RMK AO1 PK WND
35034/1308 SLP108 P0001 T10781089





000
SAUS43 KABR 031402
MTR8D3
METAR K8D3 031356Z AUTO 34021G28KT M08/M09 A2977 RMK AO1 PK WND
35034/1308 SLP108 P0001 T10781089





000
SAUS43 KABR 031301
MTR8D3
METAR K8D3 031256Z AUTO 35019KT M07/M07 A2973 RMK AO1 PK WND
35027/1225 SLP095 P0003 T10671072





000
SAUS43 KABR 031301
MTR8D3
METAR K8D3 031256Z AUTO 35019KT M07/M07 A2973 RMK AO1 PK WND
35027/1225 SLP095 P0003 T10671072





000
SAUS43 KABR 031102
MTR8D3
METAR K8D3 031056Z AUTO 34005KT M03/M03 A2969 RMK AO1 SLP076 P0002
T10281033





000
SAUS43 KABR 031102
MTR8D3
METAR K8D3 031056Z AUTO 34005KT M03/M03 A2969 RMK AO1 SLP076 P0002
T10281033





000
SAUS43 KABR 031002
MTR8D3
METAR K8D3 030956Z AUTO 19008KT M03/M03 A2968 RMK AO1 SLP073 P0001
T10281033





000
SAUS43 KABR 031002
MTR8D3
METAR K8D3 030956Z AUTO 19008KT M03/M03 A2968 RMK AO1 SLP073 P0001
T10281033





000
SAUS43 KABR 030902
MTR8D3
METAR K8D3 030856Z AUTO 19012KT M03/M04 A2972 RMK AO1 SLP083
T10281039 56026





000
SAUS43 KABR 030802
MTR8D3
METAR K8D3 030756Z AUTO 18011KT M03/M05 A2973 RMK AO1 SLP091
T10331050





000
SAUS43 KABR 030802
MTR8D3
METAR K8D3 030756Z AUTO 18011KT M03/M05 A2973 RMK AO1 SLP091
T10331050





000
SAUS43 KABR 030657
MTR8D3
METAR K8D3 030656Z AUTO 18013KT M02/M05 A2976 RMK AO1 SLP100
T10221050





000
SAUS43 KABR 030657
MTR8D3
METAR K8D3 030656Z AUTO 18013KT M02/M05 A2976 RMK AO1 SLP100
T10221050





000
SAUS43 KABR 030557
MTR8D3
METAR K8D3 030556Z AUTO 19012KT M02/M05 A2979 RMK AO1 SLP112
T10221050 11017 21028 400001156 57029





000
SAUS43 KABR 030557
MTR8D3
METAR K8D3 030556Z AUTO 19012KT M02/M05 A2979 RMK AO1 SLP112
T10221050 11017 21028 400001156 57029





000
SAUS43 KABR 030501
MTR8D3
METAR K8D3 030456Z AUTO 19015G22KT M03/M06 A2982 RMK AO1 SLP122
T10281061





000
SAUS43 KABR 030501
MTR8D3
METAR K8D3 030456Z AUTO 19015G22KT M03/M06 A2982 RMK AO1 SLP122
T10281061





000
SAUS43 KABR 030358
MTR8D3
METAR K8D3 030356Z AUTO 18017KT M03/M07 A2986 RMK AO1 SLP136
T10281067





000
SAUS43 KABR 030358
MTR8D3
METAR K8D3 030356Z AUTO 18017KT M03/M07 A2986 RMK AO1 SLP136
T10281067





000
SAUS43 KABR 030257
MTR8D3
METAR K8D3 030256Z AUTO 18018KT M03/M07 A2988 RMK AO1 SLP148
T10281067 58025





000
SAUS43 KABR 030257
MTR8D3
METAR K8D3 030256Z AUTO 18018KT M03/M07 A2988 RMK AO1 SLP148
T10281067 58025





000
SAUS43 KABR 030157
MTR8D3
METAR K8D3 030156Z AUTO 17016KT M02/M07 A2992 RMK AO1 SLP164
T10221072





000
SAUS43 KABR 030157
MTR8D3
METAR K8D3 030156Z AUTO 17016KT M02/M07 A2992 RMK AO1 SLP164
T10221072





000
SAUS43 KABR 030101
MTR8D3
METAR K8D3 030056Z AUTO 17013KT M02/M07 A2995 RMK AO1 SLP177
T10221072





000
SAUS43 KABR 030101
MTR8D3
METAR K8D3 030056Z AUTO 17013KT M02/M07 A2995 RMK AO1 SLP177
T10221072





000
SAUS43 KABR 022357
MTR8D3
METAR K8D3 022356Z AUTO 19018KT M02/M07 A2996 RMK AO1 SLP180
T10171072 10000 21028 58038





000
SAUS43 KABR 022357
MTR8D3
METAR K8D3 022356Z AUTO 19018KT M02/M07 A2996 RMK AO1 SLP180
T10171072 10000 21028 58038





000
SAUS43 KABR 022258
MTR8D3
METAR K8D3 022256Z AUTO 19020KT M01/M07 A3002 RMK AO1 PK WND
18028/2202 SLP197 T10111072





000
SAUS43 KABR 022258
MTR8D3
METAR K8D3 022256Z AUTO 19020KT M01/M07 A3002 RMK AO1 PK WND
18028/2202 SLP197 T10111072





000
SAUS43 KABR 022157
MTR8D3
METAR K8D3 022156Z AUTO 18022G28KT M01/M08 A3003 RMK AO1 PK WND
18029/2104 SLP203 T10111083





000
SAUS43 KABR 022157
MTR8D3
METAR K8D3 022156Z AUTO 18022G28KT M01/M08 A3003 RMK AO1 PK WND
18029/2104 SLP203 T10111083





000
SAUS43 KABR 022057
MTR8D3
METAR K8D3 022056Z AUTO 18021KT 00/M08 A3008 RMK AO1 PK WND
19027/2005 SLP217 T00001078 57056





000
SAUS43 KABR 022057
MTR8D3
METAR K8D3 022056Z AUTO 18021KT 00/M08 A3008 RMK AO1 PK WND
19027/2005 SLP217 T00001078 57056





000
SAUS43 KABR 022001
MTR8D3
METAR K8D3 021956Z AUTO 17020G25KT M02/M09 A3012 RMK AO1 SLP233
T10171089





000
SAUS43 KABR 022001
MTR8D3
METAR K8D3 021956Z AUTO 17020G25KT M02/M09 A3012 RMK AO1 SLP233
T10171089





000
SAUS43 KABR 021901
MTR8D3
METAR K8D3 021856Z AUTO 17016G23KT M02/M09 A3020 RMK AO1 PRESFR
SLP259 T10171094





000
SAUS43 KABR 021801
MTR8D3
METAR K8D3 021756Z AUTO 19018KT M02/M12 A3025 RMK AO1 SLP275
T10221117 11022 21156 58038





000
SAUS43 KABR 021801
MTR8D3
METAR K8D3 021756Z AUTO 19018KT M02/M12 A3025 RMK AO1 SLP275
T10221117 11022 21156 58038





000
SAUS43 KABR 021657
MTR8D3
METAR K8D3 021656Z AUTO 19015KT M03/M13 A3030 RMK AO1 SLP292
T10331133





000
SAUS43 KABR 021457
MTR8D3
METAR K8D3 021456Z AUTO 20008KT M08/M13 A3036 RMK AO1 SLP317
T10781133 58006





000
SAUS43 KABR 021358
MTR8D3
METAR K8D3 021356Z AUTO 22005KT M13/M17 A3037 RMK AO1 SLP325
T11331167





000
SAUS43 KABR 021358
MTR8D3
METAR K8D3 021356Z AUTO 22005KT M13/M17 A3037 RMK AO1 SLP325
T11331167





000
SAUS43 KABR 021257
MTR8D3
METAR K8D3 021256Z AUTO 22009KT M14/M18 A3037 RMK AO1 SLP324
T11441178





    US Dept of Commerce
    National Oceanic and Atmospheric Administration
    National Weather Service
    1325 East West Highway
    Silver Spring, MD 20910
    Page Author: NWS Internet Services Team
Disclaimer
Information Quality
Credits
Glossary
Privacy Policy
Freedom of Information Act (FOIA)
About Us
Career Opportunities